Time;durP1;ratioP1;P1;durP2;ratioP2;P2;SDS_P1;SDS_P2;PMS_P1;PMS_P2;Temp;Humidity;BMP_temperature;BMP_pressure;BME280_temperature;BME280_humidity;BME280_pressure;Samples;Min_cycle;Max_cycle;Signal;HPM_P1;HPM_P2
2023/08/22 00:00:07;;;;;;;2.35;2.25;;;21.20;99.90;;;21.68;87.92;101997.44;5034032;28;20041;-75
2023/08/22 00:02:44;;;;;;;2.42;2.33;;;21.20;99.90;;;21.70;87.63;101989.34;5041019;28;20083;-75
2023/08/22 00:05:13;;;;;;;2.20;2.10;;;21.20;99.90;;;21.74;87.58;101994.53;5044336;28;20061;-77
2023/08/22 00:07:42;;;;;;;2.50;2.40;;;21.20;99.90;;;21.73;86.99;101989.22;5042927;28;20073;-75
2023/08/22 00:10:14;;;;;;;2.63;2.53;;;21.30;99.90;;;21.77;86.86;101986.38;5045547;28;20049;-75
2023/08/22 00:12:42;;;;;;;2.10;2.00;;;21.30;99.90;;;21.81;86.54;101981.81;5042155;28;20096;-76
2023/08/22 00:15:12;;;;;;;2.30;2.20;;;21.30;99.90;;;21.88;86.63;101977.97;5045021;28;20084;-76
2023/08/22 00:17:42;;;;;;;2.40;2.30;;;21.40;99.90;;;21.94;86.71;101975.97;5043246;28;20067;-75
2023/08/22 00:20:13;;;;;;;2.55;2.45;;;21.50;99.90;;;21.98;86.98;101974.94;5043846;28;20053;-74
2023/08/22 00:22:42;;;;;;;2.20;2.10;;;21.50;99.90;;;21.82;88.68;101968.28;5044260;28;20060;-76
2023/08/22 00:25:12;;;;;;;2.42;2.33;;;21.40;99.90;;;21.88;87.02;101977.97;5042451;28;20041;-76
2023/08/22 00:27:41;;;;;;;;;;;21.40;99.90;;;21.88;84.99;101970.78;5045588;28;20048;-74
2023/08/22 00:30:10;;;;;;;2.38;2.28;;;21.40;99.90;;;21.85;84.95;101959.22;5045351;28;19921;-76
2023/08/22 00:32:39;;;;;;;2.50;2.40;;;21.40;99.90;;;21.97;86.66;101967.75;5044852;28;20040;-76
2023/08/22 00:35:08;;;;;;;2.20;2.10;;;21.50;99.90;;;22.08;86.40;101964.72;5041925;28;20057;-75
2023/08/22 00:37:36;;;;;;;2.30;2.20;;;21.60;99.90;;;22.10;84.68;101955.66;5043847;28;20095;-76
2023/08/22 00:40:07;;;;;;;2.42;2.33;;;21.60;99.90;;;22.16;82.14;101963.50;5050412;28;20495;-76
2023/08/22 00:42:37;;;;;;;2.40;2.30;;;21.60;99.90;;;22.25;80.86;101965.00;5042923;28;20041;-76
2023/08/22 00:45:07;;;;;;;2.63;2.53;;;21.80;99.90;;;22.31;80.23;101964.78;5043078;28;20041;-76
2023/08/22 00:47:36;;;;;;;2.30;2.20;;;21.80;99.90;;;22.35;79.86;101961.06;5041496;28;20548;-75
2023/08/22 00:50:06;;;;;;;2.33;2.22;;;21.90;99.90;;;22.28;81.74;101949.59;5039879;28;20107;-75
2023/08/22 00:52:35;;;;;;;2.70;2.60;;;21.90;99.90;;;22.06;81.78;101936.94;5044166;28;20456;-76
2023/08/22 00:55:03;;;;;;;2.70;2.60;;;21.80;99.90;;;21.80;84.59;101939.59;5042415;28;20045;-76
2023/08/22 00:57:32;;;;;;;2.50;2.40;;;21.30;99.90;;;21.58;86.74;101929.53;5043744;28;20495;-73
2023/08/22 01:00:06;;;;;;;2.35;2.25;;;21.10;99.90;;;21.44;88.13;101937.19;5038323;28;20049;-76
2023/08/22 01:02:34;;;;;;;4.68;4.38;;;20.90;99.90;;;21.49;88.03;101943.28;5044091;28;20041;-75
2023/08/22 01:05:04;;;;;;;2.33;2.22;;;21.00;99.90;;;21.53;87.76;101947.66;5048000;28;20034;-76
2023/08/22 01:07:37;;;;;;;2.10;2.00;;;21.00;99.90;;;21.53;87.17;101941.38;5040069;28;20156;-75
2023/08/22 01:10:15;;;;;;;2.78;2.67;;;21.00;99.90;;;21.71;85.13;101948.88;5041827;28;20064;-76
2023/08/22 01:12:51;;;;;;;2.10;2.00;;;21.20;99.90;;;21.74;83.40;101942.50;5042138;28;20052;-76
2023/08/22 01:15:25;;;;;;;2.65;2.55;;;21.30;99.90;;;21.74;82.42;101929.03;5031437;28;20060;-75
2023/08/22 01:17:55;;;;;;;2.63;2.53;;;21.30;99.90;;;21.84;83.15;101942.16;5039683;28;20057;-76
2023/08/22 01:20:26;;;;;;;2.37;2.27;;;21.40;99.90;;;21.86;83.81;101944.81;5039532;28;20057;-76
2023/08/22 01:22:57;;;;;;;2.20;2.10;;;21.40;99.90;;;21.90;83.12;101957.25;5043278;28;20042;-76
2023/08/22 01:25:27;;;;;;;2.30;2.20;;;21.40;99.90;;;21.79;82.33;101930.66;5040212;28;20053;-76
2023/08/22 01:28:10;;;;;;;2.22;2.13;;;21.50;99.90;;;21.99;82.59;101957.81;5044432;28;20132;-76
2023/08/22 01:30:49;;;;;;;2.75;2.65;;;21.50;99.90;;;22.02;82.60;101962.22;5043083;28;20077;-76
2023/08/22 01:33:27;;;;;;;2.70;2.60;;;21.50;99.90;;;22.01;82.47;101950.56;5032770;28;20129;-76
2023/08/22 01:35:56;;;;;;;2.30;2.20;;;21.50;99.90;;;21.93;81.79;101930.22;5039236;28;20050;-76
2023/08/22 01:38:30;;;;;;;2.40;2.30;;;21.60;99.90;;;22.10;81.92;101954.75;5039310;28;20119;-76
2023/08/22 01:40:59;;;;;;;2.67;2.58;;;21.70;99.90;;;21.99;82.60;101946.16;5044122;28;20055;-76
2023/08/22 01:43:28;;;;;;;2.33;2.22;;;21.60;99.90;;;21.99;83.38;101956.94;5047811;28;20510;-75
2023/08/22 01:45:57;;;;;;;2.33;2.22;;;21.50;99.90;;;21.93;84.23;101947.22;5042141;28;20084;-76
2023/08/22 01:48:26;;;;;;;2.10;2.00;;;21.50;99.90;;;22.03;83.64;101948.69;5047754;28;20048;-76
2023/08/22 01:50:54;;;;;;;2.72;2.63;;;21.60;99.90;;;22.08;82.47;101946.72;5044030;28;20046;-76
2023/08/22 01:53:23;;;;;;;2.85;2.75;;;21.60;99.90;;;22.10;81.96;101942.16;5045824;28;20060;-75
2023/08/22 01:55:52;;;;;;;2.63;2.53;;;21.70;99.90;;;21.92;82.57;101940.09;5046395;28;20045;-76
2023/08/22 01:58:21;;;;;;;2.70;2.60;;;21.50;99.90;;;21.51;83.32;101919.91;5052696;28;20053;-76
2023/08/22 02:00:49;;;;;;;2.30;2.20;;;21.30;99.90;;;21.36;84.31;101916.81;5054403;28;20057;-75
2023/08/22 02:03:17;;;;;;;2.60;2.50;;;21.10;99.90;;;21.32;85.16;101928.59;5044981;28;20045;-76
2023/08/22 02:05:47;;;;;;;2.40;2.30;;;20.90;99.90;;;21.34;85.69;101935.72;5047808;28;20033;-76
2023/08/22 02:08:17;;;;;;;2.33;2.22;;;20.80;99.90;;;21.34;86.16;101934.81;5036439;28;20044;-76
2023/08/22 02:10:45;;;;;;;2.30;2.20;;;20.80;99.90;;;21.40;86.73;101926.56;5042515;28;20136;-76
2023/08/22 02:13:15;;;;;;;2.30;2.20;;;20.90;99.90;;;21.37;86.65;101923.94;5036107;28;20111;-76
2023/08/22 02:15:44;;;;;;;2.50;2.40;;;20.90;99.90;;;21.43;86.21;101921.06;5044352;28;20072;-76
2023/08/22 02:18:12;;;;;;;2.30;2.20;;;20.90;99.90;;;21.40;85.90;101919.38;5044549;28;20055;-76
2023/08/22 02:20:41;;;;;;;2.40;2.30;;;20.90;99.90;;;21.21;85.63;101914.63;5053838;28;20045;-75
2023/08/22 02:23:10;;;;;;;2.45;2.35;;;20.70;99.90;;;21.13;85.90;101919.34;5045102;28;20073;-76
2023/08/22 02:25:38;;;;;;;2.50;2.40;;;20.70;99.90;;;21.17;85.79;101923.72;5046981;28;20130;-76
2023/08/22 02:28:07;;;;;;;2.38;2.28;;;20.70;99.90;;;21.12;86.08;101917.56;5044089;28;20041;-75
2023/08/22 02:30:37;;;;;;;2.20;2.10;;;20.60;99.90;;;21.05;86.22;101921.41;5043635;28;20041;-75
2023/08/22 02:33:06;;;;;;;2.60;2.50;;;20.60;99.90;;;20.38;86.68;101813.13;5035997;28;20045;-76
2023/08/22 02:35:35;;;;;;;2.35;2.25;;;20.60;99.90;;;21.02;86.59;101908.91;5043597;28;20073;-73
2023/08/22 02:38:03;;;;;;;2.80;2.65;;;20.50;99.90;;;20.82;87.15;101907.72;5046038;28;20040;-76
2023/08/22 02:40:33;;;;;;;2.67;2.58;;;20.40;99.90;;;20.73;87.64;101908.00;5053101;28;20060;-76
2023/08/22 02:43:02;;;;;;;3.00;2.90;;;20.30;99.90;;;20.73;88.01;101908.00;5044811;28;20044;-73
2023/08/22 02:45:30;;;;;;;2.30;2.20;;;20.30;99.90;;;20.68;88.06;101908.13;5045272;28;20048;-76
2023/08/22 02:48:00;;;;;;;2.42;2.33;;;20.20;99.90;;;20.76;87.80;101897.16;5044015;28;20111;-76
2023/08/22 02:50:30;;;;;;;2.47;2.38;;;20.30;99.90;;;20.74;87.40;101913.34;5046068;28;20048;-73
2023/08/22 02:52:58;;;;;;;2.35;2.25;;;20.30;99.90;;;20.74;87.44;101904.38;5047178;28;20483;-76
2023/08/22 02:55:27;;;;;;;3.30;3.20;;;20.30;99.90;;;20.75;87.34;101911.53;5043996;28;20124;-75
2023/08/22 02:57:55;;;;;;;2.50;2.40;;;20.30;99.90;;;20.74;86.95;101917.81;5052564;28;20045;-76
2023/08/22 03:00:23;;;;;;;2.72;2.63;;;20.30;99.90;;;20.78;86.81;101911.44;5043570;28;20054;-74
2023/08/22 03:02:52;;;;;;;2.40;2.30;;;20.30;99.90;;;20.84;86.65;101909.44;5045134;28;20482;-76
2023/08/22 03:05:22;;;;;;;2.95;2.85;;;20.40;99.90;;;20.87;86.32;101917.41;5045457;28;20107;-76
2023/08/22 03:07:51;;;;;;;2.28;2.17;;;20.50;99.90;;;20.93;86.01;101906.47;5042839;28;20083;-76
2023/08/22 03:10:19;;;;;;;2.50;2.40;;;20.50;99.90;;;20.97;85.38;101909.94;5044559;28;20055;-76
2023/08/22 03:12:50;;;;;;;2.80;2.70;;;20.60;99.90;;;20.98;85.58;101909.03;5042066;28;20048;-76
2023/08/22 03:15:19;;;;;;;2.63;2.53;;;20.50;99.90;;;20.88;85.91;101907.53;5042207;28;20590;-73
2023/08/22 03:17:47;;;;;;;2.30;2.20;;;20.50;99.90;;;20.79;85.75;101905.16;5046029;28;20134;-76
2023/08/22 03:20:15;;;;;;;2.70;2.60;;;20.40;99.90;;;20.84;85.73;101905.88;5042734;28;20059;-76
2023/08/22 03:22:45;;;;;;;2.50;2.40;;;20.40;99.90;;;20.67;85.87;101899.19;5051881;28;20041;-76
2023/08/22 03:25:15;;;;;;;2.50;2.40;;;20.30;99.90;;;20.59;85.81;101895.84;5045018;28;20046;-75
2023/08/22 03:27:44;;;;;;;3.17;3.08;;;20.20;99.90;;;20.54;86.10;101903.16;5042844;28;20065;-76
2023/08/22 03:30:13;;;;;;;2.90;2.80;;;20.10;99.90;;;20.57;86.44;101895.03;5044608;28;20505;-76
2023/08/22 03:32:41;;;;;;;3.85;3.65;;;20.10;99.90;;;20.57;86.12;101895.03;5049792;28;20045;-75
2023/08/22 03:35:10;;;;;;;2.53;2.42;;;20.10;99.90;;;20.59;86.25;101901.25;5041159;28;20485;-76
2023/08/22 03:37:42;;;;;;;2.20;2.10;;;20.20;99.90;;;20.58;86.09;101894.09;5038919;28;20045;-76
2023/08/22 03:40:13;;;;;;;2.75;2.65;;;20.10;99.90;;;20.61;86.01;101885.06;5040604;28;20414;-75
2023/08/22 03:42:43;;;;;;;2.58;2.47;;;20.20;99.90;;;20.67;86.01;101883.03;5051017;28;20049;-76
2023/08/22 03:45:11;;;;;;;2.50;2.40;;;20.30;99.90;;;20.73;85.78;101881.13;5052217;28;20148;-76
2023/08/22 03:47:40;;;;;;;3.08;2.97;;;20.30;99.90;;;20.71;85.41;101875.78;5041876;28;20050;-76
2023/08/22 03:50:09;;;;;;;2.72;2.63;;;20.30;99.90;;;20.69;85.32;101874.97;5044543;28;20056;-75
2023/08/22 03:52:38;;;;;;;2.95;2.85;;;20.30;99.90;;;20.69;85.45;101878.50;5042335;28;20045;-75
2023/08/22 03:55:07;;;;;;;2.70;2.60;;;20.30;99.90;;;20.72;85.46;101868.56;5034129;28;20394;-76
2023/08/22 03:57:37;;;;;;;2.50;2.40;;;20.30;99.90;;;20.79;85.90;101880.94;5040792;28;20469;-76
2023/08/22 04:00:07;;;;;;;;;;;20.30;99.90;;;20.82;85.21;101886.22;5041274;28;20053;-76
2023/08/22 04:02:45;;;;;;;2.50;2.40;;;20.40;99.90;;;20.85;84.66;101878.06;5045357;28;19921;-77
2023/08/22 04:05:13;;;;;;;3.97;3.78;;;20.40;99.90;;;20.86;84.42;101869.06;5041220;28;20059;-75
2023/08/22 04:07:42;;;;;;;2.60;2.50;;;20.50;99.90;;;20.90;84.40;101873.41;5052618;28;20131;-76
2023/08/22 04:10:11;;;;;;;2.58;2.47;;;20.50;99.90;;;20.98;84.12;101893.75;5040203;28;20403;-74
2023/08/22 04:12:40;;;;;;;2.78;2.67;;;20.60;99.90;;;21.06;83.88;101877.44;5051543;28;20051;-75
2023/08/22 04:15:11;;;;;;;2.70;2.60;;;20.60;99.90;;;21.01;83.90;101882.06;5043323;28;20049;-76
2023/08/22 04:17:41;;;;;;;2.35;2.25;;;20.60;99.90;;;20.99;83.84;101892.84;5050662;28;20080;-75
2023/08/22 04:20:12;;;;;;;2.35;2.25;;;20.60;99.90;;;21.06;83.53;101893.56;5051794;28;20077;-75
2023/08/22 04:22:41;;;;;;;2.50;2.40;;;20.60;99.90;;;21.10;83.23;101893.41;5049096;28;20064;-76
2023/08/22 04:25:11;;;;;;;2.65;2.55;;;20.70;99.90;;;21.09;83.00;101890.78;5043959;28;20045;-76
2023/08/22 04:27:41;;;;;;;2.53;2.42;;;20.80;99.90;;;21.21;82.87;101901.16;5041920;28;20466;-75
2023/08/22 04:30:12;;;;;;;2.40;2.30;;;20.80;99.90;;;21.14;83.15;101900.47;5051390;28;20045;-76
2023/08/22 04:32:40;;;;;;;2.30;2.20;;;20.80;99.90;;;21.15;83.80;101901.34;5050409;28;20112;-75
2023/08/22 04:35:09;;;;;;;2.60;2.50;;;20.80;99.90;;;21.13;84.02;101898.72;5041887;28;20045;-75
2023/08/22 04:37:41;;;;;;;2.20;2.10;;;20.70;99.90;;;21.16;83.67;101895.91;5051588;28;20052;-75
2023/08/22 04:40:11;;;;;;;2.53;2.42;;;20.70;99.90;;;21.15;83.81;101898.66;5040494;28;20408;-75
2023/08/22 04:43:07;;;;;;;2.30;2.20;;;20.70;99.90;;;21.13;84.16;101892.44;5041890;28;20049;-75
2023/08/22 04:45:36;;;;;;;2.45;2.35;;;20.70;99.90;;;21.18;84.02;101882.41;5044858;28;20045;-74
2023/08/22 04:48:07;;;;;;;2.40;2.30;;;20.70;99.90;;;21.19;83.90;101884.19;5051130;28;20490;-74
2023/08/22 04:50:36;;;;;;;2.55;2.45;;;20.80;99.90;;;21.21;84.02;101887.69;5042698;28;20049;-74
2023/08/22 04:53:05;;;;;;;2.50;2.40;;;20.80;99.90;;;21.17;84.02;101883.34;5050040;28;20048;-76
2023/08/22 04:55:33;;;;;;;2.35;2.25;;;20.80;99.90;;;21.13;84.14;101870.91;5050546;28;20068;-76
2023/08/22 04:58:02;;;;;;;2.65;2.55;;;20.70;99.90;;;21.15;84.22;101882.50;5041199;28;20083;-76
2023/08/22 05:00:31;;;;;;;2.80;2.70;;;20.70;99.90;;;21.13;84.33;101879.88;5042472;28;20057;-76
2023/08/22 05:03:00;;;;;;;2.70;2.60;;;20.70;99.90;;;21.05;84.50;101878.34;5040091;28;20053;-76
2023/08/22 05:05:28;;;;;;;2.22;2.13;;;20.60;99.90;;;20.92;84.70;101877.81;5051583;28;20291;-75
2023/08/22 05:07:58;;;;;;;2.40;2.30;;;20.60;99.90;;;20.85;84.88;101876.22;5031701;28;20115;-75
2023/08/22 05:10:27;;;;;;;2.25;2.15;;;20.50;99.90;;;20.81;85.19;101874.56;5039343;28;20049;-74
2023/08/22 05:12:55;;;;;;;2.55;2.45;;;20.40;99.90;;;20.78;85.26;101871.09;5041825;28;20053;-76
2023/08/22 05:15:25;;;;;;;2.90;2.80;;;20.30;99.90;;;20.83;85.57;101869.16;5041809;28;20454;-75
2023/08/22 05:17:56;;;;;;;2.50;2.40;;;20.40;99.90;;;20.88;85.69;101875.28;5041630;28;20045;-75
2023/08/22 05:20:25;;;;;;;2.50;2.40;;;20.50;99.90;;;20.97;85.83;101874.97;5040917;28;20056;-72
2023/08/22 05:22:53;;;;;;;2.75;2.65;;;20.60;99.90;;;21.09;85.68;101880.00;5043777;28;20370;-73
2023/08/22 05:25:22;;;;;;;2.42;2.33;;;20.70;99.90;;;21.18;85.81;101883.28;5039348;28;20148;-73
2023/08/22 05:27:51;;;;;;;2.40;2.30;;;20.80;99.90;;;21.35;85.77;101888.16;5032456;28;20053;-68
2023/08/22 05:30:20;;;;;;;2.53;2.42;;;20.90;99.90;;;21.48;85.80;101879.63;5039455;28;20080;-68
2023/08/22 05:32:48;;;;;;;2.40;2.30;;;21.10;99.90;;;21.61;85.98;101880.06;5041776;28;20479;-69
2023/08/22 05:35:18;;;;;;;2.58;2.47;;;21.20;99.90;;;21.73;85.95;101885.06;5049931;28;20045;-69
2023/08/22 05:37:47;;;;;;;2.95;2.85;;;21.30;99.90;;;21.80;86.10;101892.00;5042401;28;20042;-69
2023/08/22 05:40:15;;;;;;;3.35;3.17;;;21.40;99.90;;;21.93;86.16;101898.72;5040663;28;20079;-69
2023/08/22 05:42:44;;;;;;;3.30;3.15;;;21.50;99.90;;;22.05;86.11;101903.69;5041642;28;20132;-69
2023/08/22 05:45:12;;;;;;;2.13;2.03;;;21.70;99.90;;;22.15;85.67;101896.16;5040172;28;20132;-71
2023/08/22 05:47:41;;;;;;;2.70;2.60;;;21.80;99.90;;;22.26;85.70;101889.44;5051142;28;20048;-68
2023/08/22 05:50:11;;;;;;;2.50;2.40;;;21.90;99.90;;;22.39;85.34;101901.56;5039128;28;20053;-72
2023/08/22 05:52:41;;;;;;;2.53;2.42;;;22.00;99.90;;;22.58;85.33;101900.91;5040745;28;20049;-71
2023/08/22 05:55:10;;;;;;;2.33;2.22;;;22.20;99.90;;;22.84;85.39;101911.59;5050050;28;20136;-72
2023/08/22 05:57:40;;;;;;;2.60;2.50;;;22.40;99.90;;;23.12;84.09;101917.69;5040753;28;20055;-73
2023/08/22 06:00:11;;;;;;;2.40;2.30;;;22.70;99.90;;;23.36;83.00;101918.56;5041810;28;20444;-72
2023/08/22 06:02:45;;;;;;;2.70;2.60;;;23.00;99.90;;;23.62;82.20;101913.84;5043824;28;20051;-72
2023/08/22 06:05:15;;;;;;;2.42;2.33;;;23.30;99.90;;;23.82;80.79;101915.72;5047701;28;20046;-71
2023/08/22 06:07:45;;;;;;;3.45;2.90;;;23.50;99.90;;;23.89;79.80;101923.50;5050320;28;20136;-73
2023/08/22 06:10:13;;;;;;;2.10;2.00;;;23.60;99.90;;;23.88;79.06;101919.03;5041415;28;20060;-72
2023/08/22 06:12:42;;;;;;;2.35;2.25;;;23.60;99.90;;;23.91;79.12;101923.41;5041006;28;20494;-73
2023/08/22 06:15:11;;;;;;;1.92;1.83;;;23.60;99.90;;;23.88;78.65;101920.84;5037386;28;20045;-73
2023/08/22 06:17:39;;;;;;;2.40;2.30;;;23.50;99.90;;;23.91;78.68;101916.19;5042319;28;20115;-73
2023/08/22 06:20:09;;;;;;;3.03;2.85;;;23.60;99.90;;;24.01;78.99;101916.69;5047818;28;20061;-72
2023/08/22 06:22:38;;;;;;;2.40;2.30;;;23.60;99.90;;;23.47;78.75;101805.53;5050853;28;20383;-72
2023/08/22 06:25:09;;;;;;;2.42;2.33;;;23.60;99.90;;;24.15;78.66;101920.59;5040361;28;20041;-73
2023/08/22 06:27:37;;;;;;;1.88;1.80;;;23.70;99.90;;;24.20;78.18;101922.22;5042743;28;20059;-71
2023/08/22 06:30:08;;;;;;;2.45;2.35;;;23.80;99.90;;;24.31;78.08;101925.31;5048119;28;20044;-72
2023/08/22 06:32:37;;;;;;;2.15;2.05;;;23.90;99.90;;;24.33;77.42;101926.13;5051027;28;20049;-80
2023/08/22 06:35:08;;;;;;;3.47;3.15;;;23.90;99.90;;;24.36;77.02;101929.56;5045743;28;20045;-82
2023/08/22 06:37:36;;;;;;;;;;;23.90;99.90;;;24.42;77.10;101929.28;5052351;28;20490;-84
2023/08/22 06:40:09;;;;;;;2.20;2.10;;;24.00;99.90;;;24.47;77.09;101929.06;5045776;28;19920;-73
2023/08/22 06:42:39;;;;;;;1.92;1.83;;;24.00;99.90;;;24.54;77.14;101917.94;5043209;28;20050;-73
2023/08/22 06:45:10;;;;;;;2.50;1.95;;;24.20;99.90;;;24.58;76.95;101924.97;5052951;28;20083;-74
2023/08/22 06:47:39;;;;;;;2.33;2.22;;;24.20;99.90;;;24.71;76.76;101922.56;5051618;28;20100;-74
2023/08/22 06:50:09;;;;;;;2.53;2.42;;;24.30;99.90;;;24.74;76.54;101928.72;5043525;28;20085;-74
2023/08/22 06:52:37;;;;;;;2.10;2.00;;;24.30;99.90;;;24.73;76.23;101926.09;5052455;28;20586;-75
2023/08/22 06:55:08;;;;;;;3.13;2.92;;;24.40;99.90;;;24.82;75.88;101931.09;5050545;28;20049;-79
2023/08/22 06:57:36;;;;;;;2.40;2.30;;;24.50;99.90;;;24.89;75.50;101938.00;5046096;28;20045;-75
2023/08/22 07:00:14;;;;;;;2.10;2.00;;;24.50;99.90;;;24.96;75.64;101939.44;5043436;28;20053;-75
2023/08/22 07:02:42;;;;;;;2.47;2.38;;;24.60;99.90;;;25.02;75.17;101948.19;5045129;28;20456;-74
2023/08/22 07:05:13;;;;;;;1.88;1.80;;;24.60;99.90;;;25.03;74.90;101938.19;5044348;28;20076;-73
2023/08/22 07:07:42;;;;;;;3.78;3.47;;;24.70;99.90;;;25.10;74.60;101952.34;5043923;28;20459;-76
2023/08/22 07:10:13;;;;;;;2.50;2.30;;;24.70;99.90;;;25.10;74.50;101958.66;5044378;28;20402;-72
2023/08/22 07:12:45;;;;;;;1.80;1.80;;;24.80;99.90;;;25.05;74.76;101958.84;5042803;28;20065;-72
2023/08/22 07:15:14;;;;;;;2.65;2.55;;;24.80;99.90;;;24.97;75.05;101961.03;5046015;28;20051;-73
2023/08/22 07:17:42;;;;;;;1.88;1.80;;;24.60;99.90;;;24.95;75.07;101962.94;5043187;28;20084;-72
2023/08/22 07:20:13;;;;;;;1.90;1.80;;;24.60;99.90;;;24.92;75.33;101962.19;5044722;28;20510;-73
2023/08/22 07:22:42;;;;;;;1.92;1.85;;;24.50;99.90;;;24.91;75.53;101971.28;5044593;28;20053;-74
2023/08/22 07:25:12;;;;;;;2.80;2.70;;;24.50;99.90;;;24.83;75.48;101973.47;5043989;28;20041;-74
2023/08/22 07:27:40;;;;;;;2.10;2.00;;;24.40;99.90;;;24.80;75.80;101976.28;5055917;28;20037;-82
2023/08/22 07:30:10;;;;;;;2.05;1.95;;;24.40;99.90;;;24.72;76.14;101973.06;5045013;28;20049;-84
2023/08/22 07:32:38;;;;;;;1.80;1.80;;;24.40;99.90;;;24.73;76.26;101975.72;5043754;28;20127;-83
2023/08/22 07:35:08;;;;;;;1.70;1.70;;;24.40;99.90;;;24.66;76.37;101981.44;5043356;28;20045;-79
2023/08/22 07:37:37;;;;;;;2.45;2.35;;;24.30;99.90;;;24.65;77.00;101985.09;5046004;28;20059;-79
2023/08/22 07:40:07;;;;;;;1.77;1.77;;;24.20;99.90;;;24.48;77.31;101968.72;5043896;28;20042;-78
2023/08/22 07:42:37;;;;;;;2.13;2.03;;;24.20;99.90;;;24.58;77.83;101987.19;5050895;28;20041;-78
2023/08/22 07:45:07;;;;;;;1.73;1.73;;;24.20;99.90;;;24.62;78.24;101993.34;5044319;28;20041;-78
2023/08/22 07:47:35;;;;;;;2.42;2.33;;;24.20;99.90;;;24.55;78.01;101989.13;5043060;28;20037;-76
2023/08/22 07:50:05;;;;;;;1.90;1.80;;;24.20;99.90;;;24.38;77.60;101975.47;5045772;28;20491;-79
2023/08/22 07:52:33;;;;;;;2.33;2.22;;;24.10;99.90;;;24.46;77.32;101995.84;5046201;28;20406;-76
2023/08/22 07:55:02;;;;;;;2.10;2.00;;;24.10;99.90;;;24.43;77.09;101985.16;5042381;28;20099;-79
2023/08/22 07:57:31;;;;;;;2.20;2.10;;;24.10;99.90;;;24.39;76.81;101980.81;5045152;28;20052;-78
2023/08/22 08:00:01;;;;;;;2.03;1.92;;;24.00;99.90;;;24.36;76.91;101978.25;5043289;28;20050;-76
2023/08/22 08:02:39;;;;;;;2.10;2.00;;;24.00;99.90;;;24.41;76.82;101987.03;5042911;28;20151;-79
2023/08/22 08:05:09;;;;;;;1.70;1.70;;;24.00;99.90;;;24.46;76.85;101987.75;5045488;28;20510;-78
2023/08/22 08:07:37;;;;;;;2.47;2.38;;;24.10;99.90;;;24.55;76.59;101987.31;5041903;28;20125;-78
2023/08/22 08:10:06;;;;;;;1.90;1.80;;;24.20;99.90;;;24.65;76.68;101988.69;5045336;28;20089;-80
2023/08/22 08:12:35;;;;;;;2.00;1.90;;;24.30;99.90;;;24.66;76.09;101987.72;5042764;28;20178;-78
2023/08/22 08:15:06;;;;;;;2.17;2.08;;;24.30;99.90;;;24.62;76.39;101986.09;5044448;28;20051;-80
2023/08/22 08:17:35;;;;;;;2.03;1.92;;;24.30;99.90;;;24.51;75.80;101985.69;5044136;28;20057;-80
2023/08/22 08:20:05;;;;;;;1.90;1.80;;;24.10;99.90;;;24.50;76.50;101983.06;5043343;28;20045;-80
2023/08/22 08:22:34;;;;;;;2.45;2.35;;;24.10;99.90;;;24.41;75.42;101988.88;5044873;28;20049;-79
2023/08/22 08:25:02;;;;;;;1.98;1.88;;;24.10;99.90;;;24.33;76.08;101982.94;5041969;28;20129;-79
2023/08/22 08:27:31;;;;;;;2.15;2.05;;;24.00;99.90;;;24.33;76.57;101972.09;5041484;28;20083;-79
2023/08/22 08:29:59;;;;;;;2.30;2.20;;;24.00;99.90;;;24.29;76.48;101981.31;5041936;28;20044;-79
2023/08/22 08:32:29;;;;;;;1.90;1.80;;;23.90;99.90;;;24.33;76.68;101989.19;5044859;28;20048;-78
2023/08/22 08:34:57;;;;;;;2.67;2.58;;;23.90;99.90;;;24.42;76.57;101974.41;5042782;28;20049;-78
2023/08/22 08:37:28;;;;;;;2.47;2.38;;;24.00;99.90;;;24.46;76.60;101967.91;5043427;28;20456;-80
2023/08/22 08:39:56;;;;;;;2.28;2.17;;;24.10;99.90;;;24.50;76.63;101974.94;5042376;28;20045;-79
2023/08/22 08:42:25;;;;;;;2.20;2.10;;;24.10;99.90;;;24.54;76.27;101979.28;5042387;28;20494;-78
2023/08/22 08:44:57;;;;;;;1.67;1.67;;;24.20;99.90;;;24.49;76.68;101976.75;5044443;28;20048;-79
2023/08/22 08:47:26;;;;;;;2.08;1.98;;;24.10;99.90;;;24.54;76.35;101985.56;5041171;28;20076;-79
2023/08/22 08:49:56;;;;;;;2.25;2.15;;;24.20;99.90;;;24.52;75.39;101992.00;5041729;28;20045;-79
2023/08/22 08:52:24;;;;;;;2.00;1.90;;;24.20;99.90;;;24.61;75.04;101994.28;5050610;28;20514;-79
2023/08/22 08:54:53;;;;;;;2.65;2.55;;;24.20;99.90;;;24.66;74.72;101995.84;5042305;28;20045;-80
2023/08/22 08:57:22;;;;;;;1.95;1.85;;;24.30;99.90;;;24.76;74.92;102009.88;5042963;28;20473;-80
2023/08/22 08:59:50;;;;;;;2.15;2.05;;;24.40;99.90;;;24.74;73.98;102000.94;5043060;28;20054;-80
2023/08/22 09:02:20;;;;;;;2.10;2.00;;;24.40;99.90;;;24.68;73.32;102001.19;5042259;28;20483;-79
2023/08/22 09:04:49;;;;;;;2.10;2.00;;;24.40;99.90;;;24.73;73.79;101993.78;5044024;28;20543;-80
2023/08/22 09:07:19;;;;;;;2.00;1.90;;;24.40;99.90;;;24.73;73.44;101993.78;5041160;28;20068;-80
2023/08/22 09:09:48;;;;;;;2.20;2.10;;;24.40;99.90;;;24.85;73.16;102002.19;5032718;28;20049;-80
2023/08/22 09:12:16;;;;;;;2.03;1.92;;;24.50;99.90;;;24.94;72.64;101995.50;5032775;28;20057;-80
2023/08/22 09:14:46;;;;;;;2.15;2.05;;;24.60;99.90;;;24.78;71.96;101965.53;5032638;28;20127;-76
2023/08/22 09:17:15;;;;;;;2.00;1.90;;;24.60;99.90;;;24.91;72.28;101984.81;5039338;28;20569;-80
2023/08/22 09:19:44;;;;;;;1.95;1.85;;;24.60;99.90;;;24.91;71.88;101987.53;5042693;28;20295;-79
2023/08/22 09:22:14;;;;;;;2.63;2.53;;;24.60;99.90;;;24.96;71.43;101996.31;5042081;28;20051;-80
2023/08/22 09:24:54;;;;;;;2.00;1.90;;;24.60;99.90;;;24.91;71.21;101998.38;5043693;28;20049;-80
2023/08/22 09:27:23;;;;;;;2.40;2.30;;;24.60;99.90;;;24.87;71.42;102004.88;5032588;28;20139;-78
2023/08/22 09:29:51;;;;;;;1.80;1.75;;;24.50;99.90;;;24.79;71.78;102002.50;5039084;28;20040;-78
2023/08/22 09:32:23;;;;;;;2.17;2.08;;;24.50;99.90;;;24.90;72.63;102004.72;5038853;28;20042;-77
2023/08/22 09:34:55;;;;;;;2.47;2.38;;;24.50;99.90;;;24.93;72.23;102005.44;5042018;28;20052;-77
2023/08/22 09:37:31;;;;;;;2.00;1.90;;;24.50;99.90;;;24.97;72.35;102004.34;5044126;28;20041;-78
2023/08/22 09:40:03;;;;;;;2.10;2.00;;;24.60;99.90;;;24.34;72.52;101898.09;5041412;28;20053;-78
2023/08/22 09:42:32;;;;;;;1.85;1.77;;;24.60;99.90;;;25.01;71.96;102005.09;5042466;28;20479;-78
2023/08/22 09:45:00;;;;;;;2.00;1.90;;;24.60;99.90;;;25.05;71.51;102006.72;5042779;28;20041;-79
2023/08/22 09:47:30;;;;;;;2.10;2.00;;;24.70;99.90;;;25.00;71.43;102006.94;5041521;28;20484;-78
2023/08/22 09:50:02;;;;;;;2.58;2.47;;;24.60;99.90;;;24.93;71.53;101991.91;5043303;28;20045;-77
2023/08/22 09:52:32;;;;;;;2.10;2.00;;;24.60;99.90;;;24.99;71.74;102005.16;5032231;28;20045;-77
2023/08/22 09:55:02;;;;;;;2.10;2.00;;;24.60;99.90;;;25.01;71.24;102005.97;5032078;28;20045;-78
2023/08/22 09:57:31;;;;;;;;;;;24.60;99.90;;;24.92;71.15;101998.28;5039604;28;20406;-77
2023/08/22 10:00:03;;;;;;;1.95;1.85;;;24.60;99.90;;;24.89;71.16;102002.97;5032332;28;20444;-79
2023/08/22 10:02:41;;;;;;;2.10;2.00;;;24.60;99.90;;;24.81;71.28;101987.09;5043834;28;20052;-78
2023/08/22 10:05:11;;;;;;;2.15;2.05;;;24.60;99.90;;;24.88;71.03;102001.19;5040421;28;20050;-79
2023/08/22 10:07:39;;;;;;;3.15;2.97;;;24.50;99.90;;;24.95;71.71;101994.56;5046078;28;20056;-78
2023/08/22 10:10:10;;;;;;;2.03;1.92;;;24.60;99.90;;;25.06;72.65;102008.50;5045185;28;20045;-78
2023/08/22 10:12:40;;;;;;;2.10;2.00;;;24.60;99.90;;;24.99;71.86;101985.31;5045829;28;20053;-75
2023/08/22 10:15:09;;;;;;;2.38;2.28;;;24.80;99.90;;;25.12;70.90;102005.50;5046001;28;20050;-78
2023/08/22 10:17:39;;;;;;;2.22;2.13;;;24.80;99.90;;;25.04;70.37;102011.28;5044496;28;20053;-77
2023/08/22 10:20:15;;;;;;;2.13;2.03;;;24.70;99.90;;;25.08;70.55;102006.59;5047431;28;20465;-78
2023/08/22 10:22:44;;;;;;;2.25;2.15;;;24.70;99.90;;;25.08;69.94;102003.00;5044751;28;20046;-78